Sn Margarita, California
Current Conditions -  °F | °C
As of 2:51 PM on Tuesday 27 Jan 2015 (Local Time) from KSMX Reporting Station
Scattered Clouds Scattered Clouds  
Wind Chill: 68°   Ceiling: Unl
Heat Index: 68°   Visibility: 10mi
Dew Point: 53°   Wind: 10mph
Humidity: 59%   Direction: 240°WSW
Pressure: 30.17"   Gusts: NA
Location:  35.235°N, 120.021°W
Report Text: KSMX 272251Z 24009KT 10SM SCT040 20/12 A3017 RMK AO2 SLP219 T02000117 $
Loading
Personal Weather Stations






























Interactive Weather Map New forecast layout! Learn more

10-Day Weather Forecast

Advertisements
Track Severe Weather on mobile